createdAt,value
2023-02-26T00:00:37.891Z,23.67
2023-02-26T00:03:06.159Z,23.65
2023-02-26T00:05:34.327Z,23.65
2023-02-26T00:08:05.948Z,23.64
2023-02-26T00:10:34.272Z,23.65
2023-02-26T00:13:03.341Z,23.63
2023-02-26T00:15:32.296Z,23.61
2023-02-26T00:18:02.337Z,23.62
2023-02-26T00:20:31.123Z,23.61
2023-02-26T00:22:59.977Z,23.62
2023-02-26T00:25:29.620Z,23.61
2023-02-26T00:27:58.279Z,23.60
2023-02-26T00:30:27.117Z,23.59
2023-02-26T00:32:55.757Z,23.60
2023-02-26T00:35:25.676Z,23.59
2023-02-26T00:38:00.545Z,23.57
2023-02-26T00:40:42.875Z,23.58
2023-02-26T00:43:14.345Z,23.57
2023-02-26T00:45:43.662Z,23.56
2023-02-26T00:48:22.485Z,23.55
2023-02-26T00:50:54.628Z,23.54
2023-02-26T00:53:24.066Z,23.54
2023-02-26T00:55:53.994Z,23.54
2023-02-26T00:58:22.633Z,23.54
2023-02-26T01:00:50.767Z,23.53
2023-02-26T01:03:19.508Z,23.52
2023-02-26T01:05:48.280Z,23.52
2023-02-26T01:08:18.713Z,23.52
2023-02-26T01:10:47.327Z,23.52
2023-02-26T01:13:17.218Z,23.51
2023-02-26T01:15:48.466Z,23.50
2023-02-26T01:18:20.069Z,23.49
2023-02-26T01:20:49.786Z,23.50
2023-02-26T01:23:19.317Z,23.50
2023-02-26T01:25:50.085Z,23.49
2023-02-26T01:28:20.451Z,23.49
2023-02-26T01:30:49.793Z,23.49
2023-02-26T01:33:20.871Z,23.47
2023-02-26T01:35:50.192Z,23.47
2023-02-26T01:38:22.305Z,23.47
2023-02-26T01:41:28.663Z,23.47
2023-02-26T01:44:22.144Z,23.46
2023-02-26T01:47:10.684Z,23.44
2023-02-26T01:49:39.466Z,23.44
2023-02-26T01:52:08.354Z,23.44
2023-02-26T01:54:37.290Z,23.44
2023-02-26T01:57:07.276Z,23.44
2023-02-26T01:59:38.765Z,23.42
2023-02-26T02:02:09.049Z,23.42
2023-02-26T02:04:37.811Z,23.39
2023-02-26T02:07:06.136Z,23.39
2023-02-26T02:09:34.882Z,23.38
2023-02-26T02:12:10.520Z,23.38
2023-02-26T02:14:45.215Z,23.38
2023-02-26T02:17:15.631Z,23.37
2023-02-26T02:20:12.413Z,23.38
2023-02-26T02:22:55.945Z,23.37
2023-02-26T02:26:01.060Z,23.35
2023-02-26T02:28:36.613Z,23.35
2023-02-26T02:31:08.351Z,23.35
2023-02-26T02:33:40.346Z,23.34
2023-02-26T02:36:10.692Z,23.35
2023-02-26T02:38:41.292Z,23.34
2023-02-26T02:41:12.729Z,23.34
2023-02-26T02:43:40.992Z,23.33
2023-02-26T02:46:12.731Z,23.33
2023-02-26T02:48:42.333Z,23.33
2023-02-26T02:51:13.492Z,23.33
2023-02-26T02:53:45.339Z,23.32
2023-02-26T02:56:25.844Z,23.31
2023-02-26T02:59:12.040Z,23.31
2023-02-26T03:01:41.937Z,23.32
2023-02-26T03:04:11.496Z,23.31
2023-02-26T03:06:39.875Z,23.30
2023-02-26T03:09:09.071Z,23.30
2023-02-26T03:11:37.314Z,23.29
2023-02-26T03:14:06.457Z,23.29
2023-02-26T03:16:58.444Z,23.29
2023-02-26T03:19:30.588Z,23.28
2023-02-26T03:22:04.240Z,23.28
2023-02-26T03:24:59.211Z,23.27
2023-02-26T03:27:30.313Z,23.27
2023-02-26T03:30:00.330Z,23.26
2023-02-26T03:32:31.542Z,23.26
2023-02-26T03:35:01.976Z,23.26
2023-02-26T03:37:33.476Z,23.26
2023-02-26T03:40:05.311Z,23.26
2023-02-26T03:42:37.493Z,23.24
2023-02-26T03:45:09.599Z,23.24
2023-02-26T03:47:40.284Z,23.24
2023-02-26T03:50:10.228Z,23.23
2023-02-26T03:52:49.968Z,23.23
2023-02-26T03:55:40.852Z,23.22
2023-02-26T03:58:28.439Z,23.22
2023-02-26T04:01:24.485Z,23.21
2023-02-26T04:03:56.891Z,23.21
2023-02-26T04:06:25.448Z,23.21
2023-02-26T04:08:53.728Z,23.21
2023-02-26T04:11:22.833Z,23.19
2023-02-26T04:13:51.170Z,23.20
2023-02-26T04:16:20.147Z,23.19
2023-02-26T04:18:48.394Z,23.19
2023-02-26T04:21:20.217Z,23.18
2023-02-26T04:23:49.172Z,23.19
2023-02-26T04:26:17.357Z,23.17
2023-02-26T04:28:47.090Z,23.17
2023-02-26T04:31:15.911Z,23.17
2023-02-26T04:33:44.312Z,23.17
2023-02-26T04:36:12.853Z,23.17
2023-02-26T04:38:42.379Z,23.16
2023-02-26T04:41:10.595Z,23.16
2023-02-26T04:43:39.120Z,23.15
2023-02-26T04:46:21.285Z,23.15
2023-02-26T04:48:49.610Z,23.15
2023-02-26T04:51:18.235Z,23.15
2023-02-26T04:53:48.231Z,23.14
2023-02-26T04:56:16.512Z,23.13
2023-02-26T04:58:46.040Z,23.14
2023-02-26T05:01:19.158Z,23.13
2023-02-26T05:03:47.479Z,23.13
2023-02-26T05:06:16.019Z,23.12
2023-02-26T05:08:44.398Z,23.12
2023-02-26T05:11:14.035Z,23.12
2023-02-26T05:13:42.346Z,23.12
2023-02-26T05:16:10.675Z,23.10
2023-02-26T05:18:39.048Z,23.10
2023-02-26T05:21:07.582Z,23.10
2023-02-26T05:23:35.933Z,23.09
2023-02-26T05:26:04.141Z,23.09
2023-02-26T05:28:36.665Z,23.09
2023-02-26T05:31:04.987Z,23.09
2023-02-26T05:33:33.079Z,23.08
2023-02-26T05:36:01.290Z,23.08
2023-02-26T05:38:29.438Z,23.07
2023-02-26T05:40:58.648Z,23.07
2023-02-26T05:43:27.125Z,23.06
2023-02-26T05:45:56.913Z,23.06
2023-02-26T05:48:25.150Z,23.06
2023-02-26T05:50:53.418Z,23.05
2023-02-26T05:53:21.786Z,23.05
2023-02-26T05:55:50.540Z,23.06
2023-02-26T05:58:18.762Z,23.05
2023-02-26T06:00:46.938Z,23.05
2023-02-26T06:03:16.665Z,23.04
2023-02-26T06:05:44.862Z,23.04
2023-02-26T06:08:15.679Z,23.05
2023-02-26T06:10:44.022Z,23.06
2023-02-26T06:13:12.300Z,23.06
2023-02-26T06:15:40.557Z,23.07
2023-02-26T06:18:09.005Z,23.06
2023-02-26T06:20:38.840Z,23.06
2023-02-26T06:23:07.019Z,23.05
2023-02-26T06:25:35.183Z,23.05
2023-02-26T06:28:03.362Z,23.06
2023-02-26T06:30:31.862Z,23.05
2023-02-26T06:33:00.081Z,23.06
2023-02-26T06:35:30.364Z,23.07
2023-02-26T06:38:00.106Z,23.07
2023-02-26T06:40:39.873Z,23.07
2023-02-26T06:43:08.202Z,23.07
2023-02-26T06:45:36.405Z,23.06
2023-02-26T06:48:04.773Z,23.06
2023-02-26T06:50:32.992Z,23.04
2023-02-26T06:53:02.650Z,23.06
2023-02-26T06:55:30.771Z,23.05
2023-02-26T06:57:59.008Z,23.03
2023-02-26T07:00:27.264Z,23.05
2023-02-26T07:02:55.515Z,23.03
2023-02-26T07:05:24.206Z,23.02
2023-02-26T07:07:52.404Z,23.04
2023-02-26T07:10:22.604Z,23.04
2023-02-26T07:12:50.786Z,23.05
2023-02-26T07:15:18.972Z,23.06
2023-02-26T07:17:47.144Z,23.09
2023-02-26T07:20:15.415Z,23.09
2023-02-26T07:22:44.046Z,23.10
2023-02-26T07:25:12.399Z,23.10
2023-02-26T07:27:43.801Z,23.10
2023-02-26T07:30:13.182Z,23.10
2023-02-26T07:32:41.356Z,23.12
2023-02-26T07:35:10.389Z,23.12
2023-02-26T07:37:39.469Z,23.13
2023-02-26T07:40:08.726Z,23.12
2023-02-26T07:42:36.887Z,23.12
2023-02-26T07:45:08.209Z,23.12
2023-02-26T07:47:36.536Z,23.12
2023-02-26T07:50:05.066Z,23.14
2023-02-26T07:52:33.203Z,23.14
2023-02-26T07:55:01.412Z,23.14
2023-02-26T07:57:29.533Z,23.14
2023-02-26T07:59:57.683Z,23.13
2023-02-26T08:02:27.340Z,23.14
2023-02-26T08:04:55.528Z,23.14
2023-02-26T08:07:23.673Z,23.15
2023-02-26T08:09:51.814Z,23.12
2023-02-26T08:12:20.050Z,23.12
2023-02-26T08:14:48.441Z,23.12
2023-02-26T08:17:16.652Z,23.13
2023-02-26T08:19:46.191Z,23.13
2023-02-26T08:22:14.296Z,23.13
2023-02-26T08:24:42.955Z,23.14
2023-02-26T08:27:12.685Z,23.15
2023-02-26T08:29:41.763Z,23.13
2023-02-26T08:32:10.552Z,23.13
2023-02-26T08:34:38.995Z,23.13
2023-02-26T08:37:11.740Z,23.12
2023-02-26T08:39:40.041Z,23.14
2023-02-26T08:42:08.541Z,23.13
2023-02-26T08:44:36.876Z,23.13
2023-02-26T08:47:05.197Z,23.14
2023-02-26T08:49:33.419Z,23.14
2023-02-26T08:52:01.820Z,23.14
2023-02-26T08:54:31.459Z,23.13
2023-02-26T08:57:00.058Z,23.14
2023-02-26T08:59:28.237Z,23.13
2023-02-26T09:01:56.530Z,23.13
2023-02-26T09:04:24.636Z,23.13
2023-02-26T09:06:52.866Z,23.13
2023-02-26T09:09:21.161Z,23.13
2023-02-26T09:11:50.830Z,23.13
2023-02-26T09:14:19.008Z,23.14
2023-02-26T09:16:48.909Z,23.14
2023-02-26T09:19:19.052Z,23.13
2023-02-26T09:21:47.161Z,23.14
2023-02-26T09:24:15.397Z,23.14
2023-02-26T09:26:43.797Z,23.13
2023-02-26T09:29:14.564Z,23.13
2023-02-26T09:31:42.825Z,23.14
2023-02-26T09:34:11.643Z,23.14
2023-02-26T09:36:39.923Z,23.14
2023-02-26T09:39:08.864Z,23.13
2023-02-26T09:41:39.668Z,23.14
2023-02-26T09:44:22.405Z,23.13
2023-02-26T09:46:55.262Z,23.13
2023-02-26T09:49:28.575Z,23.13
2023-02-26T09:51:58.539Z,23.13
2023-02-26T09:54:27.961Z,23.13
2023-02-26T09:56:58.424Z,23.13
2023-02-26T09:59:28.668Z,23.14
2023-02-26T10:01:59.829Z,23.14
2023-02-26T10:04:45.673Z,23.14
2023-02-26T10:07:18.219Z,23.14
2023-02-26T10:09:56.265Z,23.14
2023-02-26T10:12:26.114Z,23.14
2023-02-26T10:14:57.037Z,23.15
2023-02-26T10:17:30.165Z,23.15
2023-02-26T10:20:10.296Z,23.14
2023-02-26T10:22:42.077Z,23.16
2023-02-26T10:25:12.608Z,23.15
2023-02-26T10:27:50.351Z,23.14
2023-02-26T10:30:23.591Z,23.13
2023-02-26T10:32:56.819Z,23.13
2023-02-26T10:35:26.198Z,23.12
2023-02-26T10:37:56.504Z,23.13
2023-02-26T10:40:27.922Z,23.14
2023-02-26T10:42:58.282Z,23.14
2023-02-26T10:45:34.740Z,23.15
2023-02-26T10:48:22.232Z,23.15
2023-02-26T10:50:51.401Z,23.17
2023-02-26T10:53:19.550Z,23.17
2023-02-26T10:55:48.582Z,23.18
2023-02-26T10:58:18.360Z,23.19
2023-02-26T11:00:50.174Z,23.19
2023-02-26T11:03:20.615Z,23.19
2023-02-26T11:05:49.379Z,23.19
2023-02-26T11:08:19.489Z,23.18
2023-02-26T11:10:50.147Z,23.19
2023-02-26T11:13:18.366Z,23.19
2023-02-26T11:15:50.015Z,23.19
2023-02-26T11:18:20.823Z,23.18
2023-02-26T11:20:49.091Z,23.19
2023-02-26T11:23:19.944Z,23.18
2023-02-26T11:25:48.200Z,23.18
2023-02-26T11:28:22.027Z,23.18
2023-02-26T11:30:54.500Z,23.18
2023-02-26T11:33:29.031Z,23.19
2023-02-26T11:35:58.128Z,23.19
2023-02-26T11:38:27.243Z,23.20
2023-02-26T11:40:57.200Z,23.21
2023-02-26T11:43:28.038Z,23.21
2023-02-26T11:46:00.868Z,23.22
2023-02-26T11:48:30.685Z,23.22
2023-02-26T11:51:00.354Z,23.22
2023-02-26T11:53:32.482Z,23.23
2023-02-26T11:56:03.822Z,23.22
2023-02-26T11:58:36.425Z,23.23
2023-02-26T12:01:06.432Z,23.23
2023-02-26T12:03:35.318Z,23.24
2023-02-26T12:06:04.560Z,23.24
2023-02-26T12:08:38.374Z,23.25
2023-02-26T12:11:28.413Z,23.25
2023-02-26T12:14:03.320Z,23.24
2023-02-26T12:16:36.619Z,23.24
2023-02-26T12:19:07.524Z,23.24
2023-02-26T12:21:51.848Z,23.24
2023-02-26T12:24:59.135Z,23.25
2023-02-26T12:27:32.041Z,23.25
2023-02-26T12:30:23.330Z,23.25
2023-02-26T12:33:12.853Z,23.25
2023-02-26T12:35:45.344Z,23.25
2023-02-26T12:38:21.459Z,23.25
2023-02-26T12:41:08.309Z,23.26
2023-02-26T12:43:40.425Z,23.26
2023-02-26T12:46:13.227Z,23.27
2023-02-26T12:49:07.725Z,23.27
2023-02-26T12:51:43.879Z,23.29
2023-02-26T12:54:23.859Z,23.29
2023-02-26T12:57:40.866Z,23.30
2023-02-26T13:00:18.261Z,23.32
2023-02-26T13:03:34.438Z,23.31
2023-02-26T13:06:24.756Z,23.32
2023-02-26T13:08:56.357Z,23.34
2023-02-26T13:11:29.959Z,23.33
2023-02-26T13:14:05.997Z,23.34
2023-02-26T13:16:40.033Z,23.35
2023-02-26T13:19:16.024Z,23.36
2023-02-26T13:21:48.287Z,23.37
2023-02-26T13:24:17.852Z,23.37
2023-02-26T13:26:46.145Z,23.38
2023-02-26T13:29:16.865Z,23.40
2023-02-26T13:31:46.343Z,23.40
2023-02-26T13:34:17.223Z,23.41
2023-02-26T13:36:46.909Z,23.41
2023-02-26T13:39:36.256Z,23.42
2023-02-26T13:42:08.053Z,23.42
2023-02-26T13:44:40.049Z,23.42
2023-02-26T13:47:20.924Z,23.44
2023-02-26T13:49:54.786Z,23.45
2023-02-26T13:52:29.076Z,23.45
2023-02-26T13:54:59.358Z,23.45
2023-02-26T13:57:36.139Z,23.46
2023-02-26T14:00:13.320Z,23.46
2023-02-26T14:02:53.294Z,23.48
2023-02-26T14:05:36.072Z,23.49
2023-02-26T14:08:39.382Z,23.49
2023-02-26T14:11:48.553Z,23.49
2023-02-26T14:14:38.213Z,23.50
2023-02-26T14:17:31.861Z,23.50
2023-02-26T14:20:25.257Z,23.51
2023-02-26T14:22:55.698Z,23.51
2023-02-26T14:25:33.145Z,23.51
2023-02-26T14:28:36.037Z,23.52
2023-02-26T14:31:19.865Z,23.52
2023-02-26T14:33:50.465Z,23.52
2023-02-26T14:36:21.748Z,23.53
2023-02-26T14:38:50.305Z,23.53
2023-02-26T14:41:27.386Z,23.54
2023-02-26T14:44:00.624Z,23.53
2023-02-26T14:46:29.059Z,23.54
2023-02-26T14:48:57.763Z,23.55
2023-02-26T14:51:31.219Z,23.55
2023-02-26T14:54:09.795Z,23.55
2023-02-26T14:56:53.560Z,23.52
2023-02-26T14:59:30.140Z,23.54
2023-02-26T15:02:03.318Z,23.57
2023-02-26T15:04:53.348Z,23.59
2023-02-26T15:07:29.484Z,23.61
2023-02-26T15:10:09.813Z,23.63
2023-02-26T15:12:45.401Z,23.64
2023-02-26T15:15:30.476Z,23.67
2023-02-26T15:18:17.652Z,23.68
2023-02-26T15:20:50.170Z,23.70
2023-02-26T15:23:38.278Z,23.71
2023-02-26T15:26:07.000Z,23.73
2023-02-26T15:28:38.109Z,23.74
2023-02-26T15:31:06.916Z,23.74
2023-02-26T15:33:35.473Z,23.74
2023-02-26T15:36:07.659Z,23.74
2023-02-26T15:38:41.753Z,23.72
2023-02-26T15:41:09.874Z,23.69
2023-02-26T15:43:39.521Z,23.69
2023-02-26T15:46:08.098Z,23.72
2023-02-26T15:48:38.651Z,23.72
2023-02-26T15:51:07.968Z,23.73
2023-02-26T15:53:38.005Z,23.74
2023-02-26T15:56:07.447Z,23.77
2023-02-26T15:58:37.862Z,23.76
2023-02-26T16:01:07.536Z,23.78
2023-02-26T16:03:38.725Z,23.78
2023-02-26T16:06:08.837Z,23.80
2023-02-26T16:08:37.031Z,23.81
2023-02-26T16:11:06.257Z,23.79
2023-02-26T16:13:37.820Z,23.79
2023-02-26T16:16:10.067Z,23.77
2023-02-26T16:18:38.418Z,23.73
2023-02-26T16:21:07.711Z,23.72
2023-02-26T16:23:42.051Z,23.70
2023-02-26T16:26:10.856Z,23.70
2023-02-26T16:28:45.597Z,23.69
2023-02-26T16:31:19.346Z,23.67
2023-02-26T16:33:58.757Z,23.67
2023-02-26T16:36:28.856Z,23.66
2023-02-26T16:39:11.846Z,23.65
2023-02-26T16:41:40.955Z,23.64
2023-02-26T16:44:46.052Z,23.63
2023-02-26T16:47:15.946Z,23.62
2023-02-26T16:49:44.110Z,23.62
2023-02-26T16:52:17.205Z,23.62
2023-02-26T16:54:45.716Z,23.62
2023-02-26T16:57:16.185Z,23.61
2023-02-26T16:59:44.474Z,23.60
2023-02-26T17:02:15.638Z,23.60
2023-02-26T17:04:43.784Z,23.60
2023-02-26T17:07:18.795Z,23.60
2023-02-26T17:09:49.480Z,23.59
2023-02-26T17:12:18.503Z,23.58
2023-02-26T17:14:48.058Z,23.57
2023-02-26T17:17:18.317Z,23.57
2023-02-26T17:19:46.476Z,23.57
2023-02-26T17:22:18.749Z,23.56
2023-02-26T17:24:47.598Z,23.55
2023-02-26T17:27:18.210Z,23.56
2023-02-26T17:29:47.270Z,23.55
2023-02-26T17:32:21.856Z,23.55
2023-02-26T17:34:50.264Z,23.55
2023-02-26T17:37:18.396Z,23.55
2023-02-26T17:39:46.640Z,23.53
2023-02-26T17:42:16.564Z,23.53
2023-02-26T17:44:44.981Z,23.53
2023-02-26T17:47:14.537Z,23.53
2023-02-26T17:49:44.271Z,23.53
2023-02-26T17:52:12.494Z,23.53
2023-02-26T17:54:40.753Z,23.54
2023-02-26T17:57:09.381Z,23.53
2023-02-26T17:59:37.727Z,23.54
2023-02-26T18:02:13.231Z,23.54
2023-02-26T18:04:41.718Z,23.54
2023-02-26T18:07:15.968Z,23.55
2023-02-26T18:09:44.538Z,23.55
2023-02-26T18:12:14.023Z,23.53
2023-02-26T18:14:42.260Z,23.54
2023-02-26T18:17:14.672Z,23.55
2023-02-26T18:19:43.044Z,23.55
2023-02-26T18:22:14.749Z,23.54
2023-02-26T18:24:43.092Z,23.55
2023-02-26T18:27:14.360Z,23.54
2023-02-26T18:29:42.581Z,23.55
2023-02-26T18:32:13.669Z,23.55
2023-02-26T18:34:42.045Z,23.55
2023-02-26T18:37:13.357Z,23.55
2023-02-26T18:39:41.669Z,23.56
2023-02-26T18:42:13.009Z,23.56
2023-02-26T18:44:41.239Z,23.56
2023-02-26T18:47:10.484Z,23.57
2023-02-26T18:49:38.657Z,23.58
2023-02-26T18:52:06.748Z,23.59
2023-02-26T18:54:37.048Z,23.59
2023-02-26T18:57:05.413Z,23.59
2023-02-26T18:59:34.429Z,23.59
2023-02-26T19:02:03.247Z,23.59
2023-02-26T19:04:31.738Z,23.60
2023-02-26T19:06:59.949Z,23.61
2023-02-26T19:09:28.907Z,23.60
2023-02-26T19:11:58.550Z,23.62
2023-02-26T19:14:26.740Z,23.64
2023-02-26T19:16:54.969Z,23.63
2023-02-26T19:19:23.148Z,23.64
2023-02-26T19:21:51.404Z,23.64
2023-02-26T19:24:19.664Z,23.66
2023-02-26T19:26:47.796Z,23.65
2023-02-26T19:29:18.321Z,23.65
2023-02-26T19:31:46.777Z,23.65
2023-02-26T19:34:15.148Z,23.65
2023-02-26T19:36:48.509Z,23.67
2023-02-26T19:39:17.318Z,23.69
2023-02-26T19:41:45.844Z,23.71
2023-02-26T19:44:13.955Z,23.72
2023-02-26T19:46:43.617Z,23.74
2023-02-26T19:49:11.917Z,23.76
2023-02-26T19:51:40.011Z,23.77
2023-02-26T19:54:08.088Z,23.79
2023-02-26T19:56:36.479Z,23.80
2023-02-26T19:59:04.751Z,23.81
2023-02-26T20:01:33.042Z,23.82
2023-02-26T20:04:02.763Z,23.82
2023-02-26T20:06:30.884Z,23.83
2023-02-26T20:08:59.211Z,23.83
2023-02-26T20:11:27.607Z,23.84
2023-02-26T20:13:55.928Z,23.85
2023-02-26T20:16:24.033Z,23.84
2023-02-26T20:18:52.152Z,23.84
2023-02-26T20:21:22.325Z,23.85
2023-02-26T20:23:50.494Z,23.84
2023-02-26T20:26:18.712Z,23.85
2023-02-26T20:28:46.860Z,23.86
2023-02-26T20:31:15.095Z,23.85
2023-02-26T20:33:44.564Z,23.86
2023-02-26T20:36:12.960Z,23.85
2023-02-26T20:38:42.955Z,23.85
2023-02-26T20:41:11.158Z,23.86
2023-02-26T20:43:39.359Z,23.85
2023-02-26T20:46:07.578Z,23.85
2023-02-26T20:48:40.403Z,23.86
2023-02-26T20:51:10.044Z,23.85
2023-02-26T20:53:38.220Z,23.86
2023-02-26T20:56:09.088Z,23.85
2023-02-26T20:58:38.409Z,23.86
2023-02-26T21:01:06.634Z,23.86
2023-02-26T21:03:34.772Z,23.85
2023-02-26T21:06:02.876Z,23.86
2023-02-26T21:08:31.048Z,23.86
2023-02-26T21:10:59.216Z,23.86
2023-02-26T21:13:28.644Z,23.85
2023-02-26T21:15:57.414Z,23.85
2023-02-26T21:18:25.544Z,23.86
2023-02-26T21:20:53.694Z,23.86
2023-02-26T21:23:21.914Z,23.86
2023-02-26T21:25:50.081Z,23.86
2023-02-26T21:28:18.094Z,23.86
2023-02-26T21:30:47.657Z,23.86
2023-02-26T21:33:15.844Z,23.86
2023-02-26T21:35:44.018Z,23.86
2023-02-26T21:38:12.437Z,23.84
2023-02-26T21:40:40.587Z,23.85
2023-02-26T21:43:10.673Z,23.86
2023-02-26T21:45:38.862Z,23.86
2023-02-26T21:48:08.493Z,23.86
2023-02-26T21:50:36.689Z,23.84
2023-02-26T21:53:04.883Z,23.85
2023-02-26T21:55:33.095Z,23.84
2023-02-26T21:58:02.137Z,23.84
2023-02-26T22:00:30.341Z,23.83
2023-02-26T22:02:58.473Z,23.84
2023-02-26T22:05:28.052Z,23.84
2023-02-26T22:07:56.356Z,23.84
2023-02-26T22:10:24.531Z,23.84
2023-02-26T22:12:52.726Z,23.84
2023-02-26T22:15:21.334Z,23.85
2023-02-26T22:17:49.485Z,23.85
2023-02-26T22:20:17.888Z,23.83
2023-02-26T22:22:47.465Z,23.83
2023-02-26T22:25:15.583Z,23.83
2023-02-26T22:27:43.747Z,23.82
2023-02-26T22:30:13.112Z,23.82
2023-02-26T22:32:41.379Z,23.81
2023-02-26T22:35:11.082Z,23.81
2023-02-26T22:37:39.245Z,23.80
2023-02-26T22:40:10.020Z,23.80
2023-02-26T22:42:38.292Z,23.79
2023-02-26T22:45:07.411Z,23.79
2023-02-26T22:47:35.676Z,23.78
2023-02-26T22:50:03.956Z,23.77
2023-02-26T22:52:32.198Z,23.75
2023-02-26T22:55:00.386Z,23.76
2023-02-26T22:57:30.041Z,23.74
2023-02-26T22:59:58.415Z,23.73
2023-02-26T23:02:26.711Z,23.74
2023-02-26T23:04:55.043Z,23.74
2023-02-26T23:07:23.569Z,23.73
2023-02-26T23:09:52.559Z,23.71
2023-02-26T23:12:20.663Z,23.71
2023-02-26T23:14:50.255Z,23.70
2023-02-26T23:17:18.434Z,23.71
2023-02-26T23:19:46.688Z,23.70
2023-02-26T23:22:14.796Z,23.69
2023-02-26T23:24:43.055Z,23.69
2023-02-26T23:27:11.540Z,23.67
2023-02-26T23:29:39.735Z,23.68
2023-02-26T23:32:09.352Z,23.66
2023-02-26T23:34:37.566Z,23.67
2023-02-26T23:37:05.631Z,23.64
2023-02-26T23:39:33.872Z,23.64
2023-02-26T23:42:02.131Z,23.64
2023-02-26T23:44:30.522Z,23.64
2023-02-26T23:46:58.595Z,23.63
2023-02-26T23:49:28.203Z,23.61
2023-02-26T23:51:56.411Z,23.61
2023-02-26T23:54:24.696Z,23.60
2023-02-26T23:56:52.755Z,23.59
2023-02-26T23:59:20.797Z,23.59
